createdAt,value
2018-12-05T00:00:02.027Z,13.90
2018-12-05T00:01:04.603Z,15.55
2018-12-05T00:02:07.152Z,14.10
2018-12-05T00:03:09.670Z,11.90
2018-12-05T00:04:12.187Z,17.95
2018-12-05T00:05:14.719Z,19.02
2018-12-05T00:06:17.242Z,16.12
2018-12-05T00:07:19.797Z,13.43
2018-12-05T00:08:22.351Z,16.65
2018-12-05T00:09:24.857Z,9.80
2018-12-05T00:10:27.370Z,9.90
2018-12-05T00:11:29.910Z,14.85
2018-12-05T00:12:32.469Z,10.98
2018-12-05T00:13:35.015Z,12.93
2018-12-05T00:14:37.518Z,10.82
2018-12-05T00:15:40.030Z,16.45
2018-12-05T00:16:42.534Z,13.13
2018-12-05T00:17:45.046Z,10.85
2018-12-05T00:18:47.588Z,16.62
2018-12-05T00:19:50.141Z,18.17
2018-12-05T00:20:52.648Z,24.95
2018-12-05T00:21:55.152Z,9.68
2018-12-05T00:22:57.662Z,21.25
2018-12-05T00:24:00.192Z,10.50
2018-12-05T00:25:02.734Z,13.70
2018-12-05T00:26:05.294Z,16.32
2018-12-05T00:27:07.803Z,11.97
2018-12-05T00:28:10.339Z,15.80
2018-12-05T00:29:12.842Z,9.68
2018-12-05T00:30:15.357Z,18.37
2018-12-05T00:31:17.885Z,29.55
2018-12-05T00:32:20.424Z,14.78
2018-12-05T00:33:22.925Z,11.38
2018-12-05T00:34:25.481Z,15.30
2018-12-05T00:35:27.998Z,16.52
2018-12-05T00:36:30.509Z,16.05
2018-12-05T00:37:33.046Z,11.65
2018-12-05T00:38:35.570Z,13.55
2018-12-05T00:39:38.077Z,10.90
2018-12-05T00:40:40.590Z,20.55
2018-12-05T00:41:43.138Z,16.93
2018-12-05T00:42:45.651Z,20.80
2018-12-05T00:43:48.161Z,16.12
2018-12-05T00:44:50.702Z,25.50
2018-12-05T00:45:53.211Z,14.10
2018-12-05T00:46:55.712Z,15.40
2018-12-05T00:47:58.218Z,15.13
2018-12-05T00:49:00.724Z,17.15
2018-12-05T00:50:03.765Z,17.92
2018-12-05T00:51:06.277Z,17.85
2018-12-05T00:52:08.789Z,17.95
2018-12-05T00:53:11.298Z,16.25
2018-12-05T00:54:14.013Z,20.37
2018-12-05T00:55:16.518Z,15.00
2018-12-05T00:56:19.021Z,22.30
2018-12-05T00:57:21.530Z,23.07
2018-12-05T00:58:24.045Z,18.25
2018-12-05T00:59:26.589Z,23.50
2018-12-05T01:00:29.101Z,21.77
2018-12-05T01:01:31.633Z,26.97
2018-12-05T01:02:34.139Z,21.70
2018-12-05T01:03:36.699Z,20.27
2018-12-05T01:04:39.210Z,20.32
2018-12-05T01:05:41.798Z,20.68
2018-12-05T01:06:44.357Z,25.65
2018-12-05T01:07:46.919Z,26.35
2018-12-05T01:08:49.441Z,19.40
2018-12-05T01:09:52.077Z,23.05
2018-12-05T01:10:54.586Z,20.75
2018-12-05T01:11:57.089Z,19.82
2018-12-05T01:12:59.594Z,13.95
2018-12-05T01:14:02.152Z,18.30
2018-12-05T01:15:05.706Z,14.47
2018-12-05T01:16:08.280Z,15.80
2018-12-05T01:17:10.786Z,17.32
2018-12-05T01:18:13.295Z,16.87
2018-12-05T01:19:15.811Z,18.65
2018-12-05T01:20:18.354Z,26.42
2018-12-05T01:21:20.858Z,17.05
2018-12-05T01:22:23.393Z,16.87
2018-12-05T01:23:25.894Z,28.90
2018-12-05T01:24:28.403Z,14.95
2018-12-05T01:25:30.938Z,17.85
2018-12-05T01:26:33.442Z,18.92
2018-12-05T01:27:36.001Z,18.82
2018-12-05T01:28:38.545Z,16.93
2018-12-05T01:29:41.053Z,16.45
2018-12-05T01:30:43.554Z,25.12
2018-12-05T01:31:46.063Z,24.18
2018-12-05T01:32:48.605Z,19.42
2018-12-05T01:33:51.109Z,20.23
2018-12-05T01:34:53.618Z,14.83
2018-12-05T01:35:56.322Z,13.50
2018-12-05T01:36:58.865Z,27.80
2018-12-05T01:38:01.378Z,18.27
2018-12-05T01:39:06.286Z,15.08
2018-12-05T01:40:08.793Z,12.15
2018-12-05T01:41:11.293Z,18.37
2018-12-05T01:42:13.831Z,18.07
2018-12-05T01:43:16.333Z,16.82
2018-12-05T01:44:18.889Z,20.45
2018-12-05T01:45:21.445Z,20.45
2018-12-05T01:46:23.977Z,15.95
2018-12-05T01:47:26.577Z,15.60
2018-12-05T01:48:29.127Z,15.45
2018-12-05T01:49:31.686Z,14.18
2018-12-05T01:50:34.241Z,16.00
2018-12-05T01:51:36.749Z,14.35
2018-12-05T01:52:39.260Z,11.68
2018-12-05T01:53:41.811Z,16.02
2018-12-05T01:54:44.318Z,17.80
2018-12-05T01:55:46.822Z,16.90
2018-12-05T01:56:49.330Z,14.13
2018-12-05T01:57:51.892Z,19.73
2018-12-05T01:58:54.489Z,22.85
2018-12-05T01:59:56.998Z,11.70
2018-12-05T02:00:59.661Z,15.32
2018-12-05T02:02:02.217Z,17.20
2018-12-05T02:03:04.730Z,20.43
2018-12-05T02:04:07.271Z,12.03
2018-12-05T02:05:09.825Z,14.90
2018-12-05T02:06:12.371Z,18.42
2018-12-05T02:07:14.880Z,25.50
2018-12-05T02:08:17.390Z,14.35
2018-12-05T02:09:19.890Z,18.30
2018-12-05T02:10:22.408Z,18.37
2018-12-05T02:11:24.957Z,19.20
2018-12-05T02:12:27.462Z,22.65
2018-12-05T02:13:30.020Z,22.73
2018-12-05T02:14:32.586Z,20.23
2018-12-05T02:15:35.186Z,16.25
2018-12-05T02:16:37.753Z,19.20
2018-12-05T02:17:40.266Z,13.38
2018-12-05T02:18:42.771Z,14.98
2018-12-05T02:19:45.270Z,28.25
2018-12-05T02:20:47.810Z,15.38
2018-12-05T02:21:50.318Z,15.30
2018-12-05T02:22:52.857Z,16.05
2018-12-05T02:23:55.357Z,18.52
2018-12-05T02:24:57.907Z,15.30
2018-12-05T02:26:00.428Z,18.60
2018-12-05T02:27:02.938Z,15.75
2018-12-05T02:28:05.527Z,14.15
2018-12-05T02:29:08.035Z,20.20
2018-12-05T02:30:10.556Z,14.45
2018-12-05T02:31:13.058Z,17.90
2018-12-05T02:32:15.724Z,25.52
2018-12-05T02:33:18.323Z,16.35
2018-12-05T02:34:20.838Z,31.57
2018-12-05T02:35:23.345Z,17.67
2018-12-05T02:36:25.853Z,19.77
2018-12-05T02:37:28.409Z,17.00
2018-12-05T02:38:30.966Z,18.82
2018-12-05T02:39:33.475Z,22.13
2018-12-05T02:40:35.983Z,22.07
2018-12-05T02:41:38.505Z,15.80
2018-12-05T02:42:41.141Z,17.10
2018-12-05T02:43:43.646Z,15.83
2018-12-05T02:44:46.158Z,13.48
2018-12-05T02:45:48.670Z,18.87
2018-12-05T02:46:51.226Z,25.80
2018-12-05T02:47:53.773Z,16.90
2018-12-05T02:48:56.280Z,21.55
2018-12-05T02:49:58.795Z,17.40
2018-12-05T02:51:01.341Z,21.85
2018-12-05T02:52:03.894Z,13.60
2018-12-05T02:53:06.437Z,15.70
2018-12-05T02:54:08.942Z,14.78
2018-12-05T02:55:11.493Z,19.48
2018-12-05T02:56:14.001Z,17.62
2018-12-05T02:57:16.549Z,14.15
2018-12-05T02:58:19.071Z,17.57
2018-12-05T02:59:21.582Z,14.60
2018-12-05T03:00:24.138Z,18.00
2018-12-05T03:01:26.642Z,15.05
2018-12-05T03:02:29.199Z,13.83
2018-12-05T03:03:31.790Z,15.78
2018-12-05T03:04:34.369Z,12.25
2018-12-05T03:05:36.879Z,15.48
2018-12-05T03:06:39.386Z,17.37
2018-12-05T03:07:41.926Z,16.35
2018-12-05T03:08:44.442Z,12.13
2018-12-05T03:09:46.954Z,15.35
2018-12-05T03:10:49.491Z,11.75
2018-12-05T03:11:52.049Z,14.18
2018-12-05T03:12:54.564Z,17.57
2018-12-05T03:13:57.105Z,14.60
2018-12-05T03:14:59.958Z,12.40
2018-12-05T03:16:02.464Z,11.30
2018-12-05T03:17:05.049Z,13.48
2018-12-05T03:18:07.557Z,14.15
2018-12-05T03:19:10.090Z,14.53
2018-12-05T03:20:12.690Z,13.05
2018-12-05T03:21:15.312Z,19.32
2018-12-05T03:22:17.822Z,16.60
2018-12-05T03:23:20.326Z,13.83
2018-12-05T03:24:22.832Z,18.40
2018-12-05T03:25:25.337Z,17.07
2018-12-05T03:26:27.877Z,15.40
2018-12-05T03:27:30.392Z,19.05
2018-12-05T03:28:32.902Z,18.17
2018-12-05T03:29:35.453Z,15.48
2018-12-05T03:30:37.955Z,10.13
2018-12-05T03:31:40.487Z,16.30
2018-12-05T03:32:43.122Z,17.35
2018-12-05T03:33:45.635Z,13.80
2018-12-05T03:34:48.178Z,14.03
2018-12-05T03:35:50.692Z,14.43
2018-12-05T03:36:53.206Z,12.47
2018-12-05T03:37:55.716Z,19.15
2018-12-05T03:38:58.255Z,18.30
2018-12-05T03:40:00.800Z,16.27
2018-12-05T03:41:03.305Z,11.05
2018-12-05T03:42:06.007Z,13.40
2018-12-05T03:43:08.515Z,11.05
2018-12-05T03:44:11.119Z,14.33
2018-12-05T03:45:13.714Z,11.30
2018-12-05T03:46:16.218Z,21.62
2018-12-05T03:47:18.721Z,16.07
2018-12-05T03:48:21.224Z,14.47
2018-12-05T03:49:23.778Z,22.55
2018-12-05T03:50:26.282Z,11.38
2018-12-05T03:51:28.788Z,11.05
2018-12-05T03:52:31.305Z,13.88
2018-12-05T03:53:33.814Z,11.40
2018-12-05T03:54:36.368Z,11.48
2018-12-05T03:55:38.975Z,8.45
2018-12-05T03:56:41.511Z,16.45
2018-12-05T03:57:44.056Z,12.93
2018-12-05T03:58:46.570Z,36.08
2018-12-05T03:59:49.086Z,11.53
2018-12-05T04:00:51.598Z,13.48
2018-12-05T04:01:54.105Z,14.50
2018-12-05T04:02:56.692Z,10.65
2018-12-05T04:03:59.208Z,16.52
2018-12-05T04:05:01.725Z,16.32
2018-12-05T04:06:04.423Z,9.55
2018-12-05T04:07:07.036Z,12.47
2018-12-05T04:08:09.574Z,10.30
2018-12-05T04:09:12.081Z,17.15
2018-12-05T04:10:14.582Z,13.40
2018-12-05T04:11:17.087Z,13.32
2018-12-05T04:12:19.639Z,12.75
2018-12-05T04:13:22.150Z,11.05
2018-12-05T04:14:24.650Z,14.95
2018-12-05T04:15:27.280Z,15.45
2018-12-05T04:16:29.791Z,17.45
2018-12-05T04:17:32.341Z,14.55
2018-12-05T04:18:34.860Z,11.73
2018-12-05T04:19:37.425Z,17.37
2018-12-05T04:20:39.921Z,9.03
2018-12-05T04:21:42.434Z,10.60
2018-12-05T04:22:44.974Z,12.10
2018-12-05T04:23:47.482Z,17.90
2018-12-05T04:24:49.981Z,13.85
2018-12-05T04:25:52.490Z,10.60
2018-12-05T04:26:55.004Z,10.50
2018-12-05T04:27:57.551Z,11.38
2018-12-05T04:29:00.097Z,15.25
2018-12-05T04:30:02.691Z,7.40
2018-12-05T04:31:05.190Z,9.28
2018-12-05T04:32:07.706Z,10.68
2018-12-05T04:33:10.213Z,10.40
2018-12-05T04:34:12.750Z,8.43
2018-12-05T04:35:15.267Z,8.08
2018-12-05T04:36:17.769Z,12.18
2018-12-05T04:37:20.275Z,9.70
2018-12-05T04:38:22.781Z,15.00
2018-12-05T04:39:25.337Z,15.05
2018-12-05T04:40:27.841Z,15.98
2018-12-05T04:41:30.341Z,8.23
2018-12-05T04:42:32.846Z,15.98
2018-12-05T04:43:35.350Z,8.60
2018-12-05T04:44:37.885Z,12.58
2018-12-05T04:45:40.434Z,11.25
2018-12-05T04:46:42.953Z,13.25
2018-12-05T04:47:45.463Z,14.80
2018-12-05T04:48:47.970Z,13.30
2018-12-05T04:49:50.567Z,8.98
2018-12-05T04:50:53.102Z,16.50
2018-12-05T04:51:55.609Z,16.87
2018-12-05T04:52:58.117Z,11.83
2018-12-05T04:54:00.626Z,15.50
2018-12-05T04:55:03.182Z,7.70
2018-12-05T04:56:05.724Z,15.78
2018-12-05T04:57:08.396Z,7.50
2018-12-05T04:58:10.906Z,9.53
2018-12-05T04:59:13.504Z,9.70
2018-12-05T05:00:16.077Z,13.28
2018-12-05T05:01:18.591Z,11.15
2018-12-05T05:02:21.110Z,10.93
2018-12-05T05:03:23.646Z,9.98
2018-12-05T05:04:26.154Z,10.40
2018-12-05T05:05:28.698Z,14.28
2018-12-05T05:06:31.219Z,13.58
2018-12-05T05:07:33.728Z,17.10
2018-12-05T05:08:36.250Z,9.65
2018-12-05T05:09:38.803Z,12.95
2018-12-05T05:10:41.306Z,10.40
2018-12-05T05:11:43.813Z,17.20
2018-12-05T05:12:46.323Z,12.55
2018-12-05T05:13:48.872Z,17.42
2018-12-05T05:14:51.494Z,10.65
2018-12-05T05:15:54.056Z,12.10
2018-12-05T05:16:56.564Z,13.80
2018-12-05T05:17:59.078Z,14.65
2018-12-05T05:19:01.583Z,16.95
2018-12-05T05:20:04.541Z,10.88
2018-12-05T05:21:07.065Z,11.03
2018-12-05T05:22:09.570Z,13.62
2018-12-05T05:23:12.080Z,7.62
2018-12-05T05:24:14.589Z,13.60
2018-12-05T05:25:17.178Z,13.83
2018-12-05T05:26:19.693Z,10.60
2018-12-05T05:27:22.241Z,9.73
2018-12-05T05:28:24.751Z,10.82
2018-12-05T05:29:27.264Z,14.28
2018-12-05T05:30:29.774Z,11.88
2018-12-05T05:31:32.281Z,12.75
2018-12-05T05:32:34.822Z,14.33
2018-12-05T05:33:37.381Z,22.80
2018-12-05T05:34:39.894Z,17.35
2018-12-05T05:35:42.450Z,25.68
2018-12-05T05:36:44.988Z,20.77
2018-12-05T05:37:47.501Z,25.82
2018-12-05T05:38:50.002Z,16.52
2018-12-05T05:39:52.519Z,16.67
2018-12-05T05:40:55.069Z,17.12
2018-12-05T05:41:57.606Z,23.38
2018-12-05T05:43:00.109Z,25.40
2018-12-05T05:44:02.611Z,11.70
2018-12-05T05:45:05.157Z,16.27
2018-12-05T05:46:07.670Z,17.95
2018-12-05T05:47:10.266Z,17.17
2018-12-05T05:48:12.819Z,18.67
2018-12-05T05:49:15.322Z,18.27
2018-12-05T05:50:17.838Z,10.55
2018-12-05T05:51:20.349Z,19.52
2018-12-05T05:52:22.914Z,15.65
2018-12-05T05:53:25.428Z,24.05
2018-12-05T05:54:27.930Z,25.25
2018-12-05T05:55:30.439Z,35.43
2018-12-05T05:56:32.950Z,43.42
2018-12-05T05:57:35.506Z,44.08
2018-12-05T05:58:38.014Z,46.35
2018-12-05T05:59:40.529Z,32.93
2018-12-05T06:00:43.030Z,47.85
2018-12-05T06:01:45.543Z,49.58
2018-12-05T06:02:48.098Z,55.92
2018-12-05T06:03:50.621Z,58.55
2018-12-05T06:04:53.140Z,68.57
2018-12-05T06:05:55.649Z,57.33
2018-12-05T06:06:58.158Z,61.50
2018-12-05T06:08:00.706Z,44.38
2018-12-05T06:09:04.614Z,42.85
2018-12-05T06:10:07.221Z,44.33
2018-12-05T06:11:09.729Z,40.43
2018-12-05T06:12:12.257Z,46.10
2018-12-05T06:13:14.803Z,48.10
2018-12-05T06:14:17.312Z,51.53
2018-12-05T06:15:19.817Z,45.00
2018-12-05T06:16:22.331Z,39.63
2018-12-05T06:17:24.877Z,45.45
2018-12-05T06:18:27.392Z,45.30
2018-12-05T06:19:29.934Z,50.17
2018-12-05T06:20:32.451Z,45.58
2018-12-05T06:21:34.961Z,31.02
2018-12-05T06:22:37.470Z,29.70
2018-12-05T06:23:40.033Z,34.73
2018-12-05T06:24:42.573Z,32.40
2018-12-05T06:25:45.126Z,35.23
2018-12-05T06:26:47.633Z,39.20
2018-12-05T06:27:50.190Z,26.73
2018-12-05T06:28:52.696Z,24.55
2018-12-05T06:29:55.221Z,29.18
2018-12-05T06:30:57.773Z,34.70
2018-12-05T06:32:00.285Z,22.25
2018-12-05T06:33:02.789Z,17.40
2018-12-05T06:34:05.341Z,20.60
2018-12-05T06:35:07.849Z,24.35
2018-12-05T06:36:10.391Z,28.80
2018-12-05T06:37:12.902Z,23.38
2018-12-05T06:38:15.441Z,36.28
2018-12-05T06:39:17.945Z,22.67
2018-12-05T06:40:20.454Z,28.67
2018-12-05T06:41:23.020Z,26.27
2018-12-05T06:42:25.528Z,27.75
2018-12-05T06:43:28.048Z,28.62
2018-12-05T06:44:30.558Z,24.07
2018-12-05T06:45:33.070Z,34.03
2018-12-05T06:46:35.619Z,24.92
2018-12-05T06:47:38.135Z,32.23
2018-12-05T06:48:40.652Z,24.75
2018-12-05T06:49:43.217Z,23.32
2018-12-05T06:50:45.726Z,25.97
2018-12-05T06:51:48.285Z,22.90
2018-12-05T06:52:50.798Z,39.48
2018-12-05T06:53:53.314Z,24.70
2018-12-05T06:54:55.825Z,22.15
2018-12-05T06:55:58.620Z,20.72
2018-12-05T06:57:01.185Z,19.82
2018-12-05T06:58:03.698Z,16.60
2018-12-05T06:59:06.215Z,20.32
2018-12-05T07:00:08.830Z,16.97
2018-12-05T07:01:11.333Z,24.07
2018-12-05T07:02:13.890Z,17.80
2018-12-05T07:03:16.393Z,22.22
2018-12-05T07:04:18.901Z,22.35
2018-12-05T07:05:21.412Z,21.97
2018-12-05T07:06:23.923Z,22.48
2018-12-05T07:07:26.474Z,19.87
2018-12-05T07:08:28.991Z,15.38
2018-12-05T07:09:31.510Z,30.95
2018-12-05T07:10:34.022Z,17.15
2018-12-05T07:11:36.579Z,24.32
2018-12-05T07:12:39.123Z,17.02
2018-12-05T07:13:41.628Z,11.53
2018-12-05T07:14:44.173Z,24.05
2018-12-05T07:15:46.689Z,18.73
2018-12-05T07:16:49.193Z,19.35
2018-12-05T07:17:51.710Z,21.33
2018-12-05T07:18:54.246Z,17.73
2018-12-05T07:19:56.757Z,11.03
2018-12-05T07:20:59.266Z,21.17
2018-12-05T07:22:01.820Z,14.20
2018-12-05T07:23:04.329Z,18.07
2018-12-05T07:24:06.837Z,18.60
2018-12-05T07:25:09.347Z,15.70
2018-12-05T07:26:11.861Z,19.12
2018-12-05T07:27:14.394Z,15.00
2018-12-05T07:28:16.913Z,20.57
2018-12-05T07:29:19.454Z,20.20
2018-12-05T07:30:29.208Z,21.42
2018-12-05T07:31:26.486Z,14.98
2018-12-05T07:32:28.998Z,18.90
2018-12-05T07:33:31.514Z,14.18
2018-12-05T07:34:34.063Z,11.22
2018-12-05T07:35:36.567Z,13.30
2018-12-05T07:36:39.081Z,12.35
2018-12-05T07:37:41.590Z,15.48
2018-12-05T07:38:44.095Z,20.57
2018-12-05T07:39:46.637Z,18.75
2018-12-05T07:40:49.150Z,18.45
2018-12-05T07:41:51.811Z,23.52
2018-12-05T07:42:54.363Z,26.33
2018-12-05T07:43:56.874Z,24.70
2018-12-05T07:44:59.431Z,19.60
2018-12-05T07:46:01.944Z,26.45
2018-12-05T07:47:04.455Z,26.62
2018-12-05T07:48:06.990Z,15.20
2018-12-05T07:49:09.530Z,14.60
2018-12-05T07:50:12.034Z,22.73
2018-12-05T07:51:14.535Z,16.05
2018-12-05T07:52:17.041Z,15.00
2018-12-05T07:53:19.590Z,13.03
2018-12-05T07:54:22.093Z,16.77
2018-12-05T07:55:24.597Z,16.77
2018-12-05T07:56:27.117Z,22.20
2018-12-05T07:57:29.657Z,19.00
2018-12-05T07:58:32.197Z,26.25
2018-12-05T07:59:34.706Z,21.07
2018-12-05T08:00:37.217Z,16.97
2018-12-05T08:01:39.720Z,13.40
2018-12-05T08:02:42.264Z,15.83
2018-12-05T08:03:44.772Z,16.30
2018-12-05T08:04:47.326Z,14.05
2018-12-05T08:05:49.838Z,17.95
2018-12-05T08:06:52.354Z,24.20
2018-12-05T08:07:54.874Z,20.50
2018-12-05T08:08:57.381Z,18.17
2018-12-05T08:09:59.935Z,26.60
2018-12-05T08:11:02.533Z,18.52
2018-12-05T08:12:05.168Z,15.65
2018-12-05T08:13:07.682Z,19.75
2018-12-05T08:14:10.186Z,13.13
2018-12-05T08:15:12.732Z,20.48
2018-12-05T08:16:15.239Z,15.25
2018-12-05T08:17:17.745Z,13.18
2018-12-05T08:18:20.251Z,13.05
2018-12-05T08:19:22.754Z,21.87
2018-12-05T08:20:25.291Z,16.60
2018-12-05T08:21:27.801Z,18.92
2018-12-05T08:22:30.309Z,21.15
2018-12-05T08:23:32.814Z,23.00
2018-12-05T08:24:35.317Z,15.40
2018-12-05T08:25:37.869Z,17.70
2018-12-05T08:26:40.377Z,21.87
2018-12-05T08:27:43.002Z,23.75
2018-12-05T08:28:45.523Z,21.73
2018-12-05T08:29:48.029Z,15.75
2018-12-05T08:30:50.576Z,22.25
2018-12-05T08:31:53.119Z,21.10
2018-12-05T08:32:55.627Z,18.70
2018-12-05T08:33:58.133Z,29.45
2018-12-05T08:35:00.647Z,17.65
2018-12-05T08:36:03.158Z,17.82
2018-12-05T08:37:05.702Z,24.67
2018-12-05T08:38:08.205Z,17.85
2018-12-05T08:39:10.748Z,21.20
2018-12-05T08:40:13.262Z,23.02
2018-12-05T08:41:15.761Z,22.95
2018-12-05T08:42:18.314Z,16.45
2018-12-05T08:43:20.822Z,23.47
2018-12-05T08:44:23.337Z,22.70
2018-12-05T08:45:25.859Z,23.60
2018-12-05T08:46:28.373Z,26.27
2018-12-05T08:47:33.768Z,27.77
2018-12-05T08:48:35.453Z,21.10
2018-12-05T08:49:37.962Z,22.85
2018-12-05T08:50:40.497Z,16.90
2018-12-05T08:51:43.102Z,17.65
2018-12-05T08:52:45.658Z,18.05
2018-12-05T08:53:48.170Z,23.70
2018-12-05T08:54:50.731Z,20.20
2018-12-05T08:55:53.274Z,22.98
2018-12-05T08:56:55.786Z,19.73
2018-12-05T08:57:58.290Z,21.80
2018-12-05T08:59:00.801Z,19.02
2018-12-05T09:00:03.806Z,17.32
2018-12-05T09:01:06.369Z,21.25
2018-12-05T09:02:08.878Z,18.37
2018-12-05T09:03:11.387Z,22.02
2018-12-05T09:04:13.893Z,17.55
2018-12-05T09:05:16.397Z,22.45
2018-12-05T09:06:18.935Z,24.98
2018-12-05T09:07:21.444Z,18.42
2018-12-05T09:08:23.953Z,16.85
2018-12-05T09:09:26.506Z,20.72
2018-12-05T09:10:29.105Z,23.42
2018-12-05T09:11:31.657Z,21.27
2018-12-05T09:12:34.204Z,19.10
2018-12-05T09:13:36.710Z,18.48
2018-12-05T09:14:39.267Z,21.33
2018-12-05T09:15:41.782Z,14.68
2018-12-05T09:16:44.290Z,21.00
2018-12-05T09:17:46.879Z,20.90
2018-12-05T09:18:49.390Z,18.92
2018-12-05T09:19:51.902Z,18.82
2018-12-05T09:20:54.413Z,15.18
2018-12-05T09:21:56.927Z,16.50
2018-12-05T09:22:59.533Z,21.70
2018-12-05T09:24:02.082Z,27.52
2018-12-05T09:25:04.995Z,20.10
2018-12-05T09:26:07.558Z,14.60
2018-12-05T09:27:10.066Z,21.82
2018-12-05T09:28:12.575Z,20.05
2018-12-05T09:29:15.092Z,15.10
2018-12-05T09:30:17.608Z,19.15
2018-12-05T09:31:20.153Z,26.17
2018-12-05T09:32:22.706Z,25.55
2018-12-05T09:33:25.221Z,17.02
2018-12-05T09:34:27.730Z,21.68
2018-12-05T09:35:30.239Z,14.58
2018-12-05T09:36:32.791Z,18.70
2018-12-05T09:37:35.354Z,16.95
2018-12-05T09:38:37.942Z,15.20
2018-12-05T09:39:40.450Z,16.25
2018-12-05T09:40:42.953Z,21.12
2018-12-05T09:41:45.465Z,13.93
2018-12-05T09:42:48.010Z,17.67
2018-12-05T09:43:50.510Z,18.37
2018-12-05T09:44:53.073Z,14.33
2018-12-05T09:45:55.610Z,17.07
2018-12-05T09:46:58.117Z,14.20
2018-12-05T09:48:00.631Z,21.02
2018-12-05T09:49:03.189Z,17.05
2018-12-05T09:50:05.897Z,21.40
2018-12-05T09:51:08.449Z,17.42
2018-12-05T09:52:11.009Z,16.50
2018-12-05T09:53:13.513Z,17.95
2018-12-05T09:54:16.016Z,19.82
2018-12-05T09:55:18.526Z,16.37
2018-12-05T09:56:21.067Z,17.57
2018-12-05T09:57:23.574Z,19.35
2018-12-05T09:58:26.084Z,23.42
2018-12-05T09:59:28.626Z,25.97
2018-12-05T10:00:31.139Z,18.20
2018-12-05T10:01:33.642Z,18.05
2018-12-05T10:02:36.214Z,24.95
2018-12-05T10:03:38.721Z,23.32
2018-12-05T10:04:41.278Z,24.45
2018-12-05T10:05:43.803Z,20.25
2018-12-05T10:06:46.355Z,23.35
2018-12-05T10:07:48.858Z,22.10
2018-12-05T10:08:51.366Z,28.47
2018-12-05T10:09:55.357Z,24.12
2018-12-05T10:10:57.948Z,28.30
2018-12-05T10:12:00.504Z,17.90
2018-12-05T10:13:03.054Z,23.65
2018-12-05T10:14:05.703Z,21.27
2018-12-05T10:15:08.320Z,24.30
2018-12-05T10:16:10.830Z,23.55
2018-12-05T10:17:13.331Z,20.08
2018-12-05T10:18:15.843Z,24.82
2018-12-05T10:19:18.382Z,17.00
2018-12-05T10:20:20.886Z,15.32
2018-12-05T10:21:23.390Z,20.08
2018-12-05T10:22:25.897Z,25.40
2018-12-05T10:23:28.400Z,21.57
2018-12-05T10:24:31.022Z,18.23
2018-12-05T10:25:33.567Z,13.15
2018-12-05T10:26:36.079Z,21.93
2018-12-05T10:27:38.600Z,21.65
2018-12-05T10:28:41.109Z,21.60
2018-12-05T10:29:43.673Z,18.27
2018-12-05T10:30:46.285Z,20.82
2018-12-05T10:31:48.799Z,19.42
2018-12-05T10:32:51.306Z,17.02
2018-12-05T10:33:53.822Z,14.40
2018-12-05T10:34:56.329Z,17.85
2018-12-05T10:35:59.441Z,13.68
2018-12-05T10:37:01.950Z,14.58
2018-12-05T10:38:04.563Z,19.45
2018-12-05T10:39:07.182Z,14.90
2018-12-05T10:40:09.746Z,20.85
2018-12-05T10:41:12.342Z,19.37
2018-12-05T10:42:14.844Z,23.70
2018-12-05T10:43:17.353Z,19.95
2018-12-05T10:44:19.898Z,17.27
2018-12-05T10:45:22.410Z,17.10
2018-12-05T10:46:24.927Z,16.93
2018-12-05T10:47:27.520Z,17.17
2018-12-05T10:48:30.080Z,16.07
2018-12-05T10:49:32.587Z,22.10
2018-12-05T10:50:35.132Z,19.07
2018-12-05T10:51:37.636Z,23.62
2018-12-05T10:52:40.160Z,23.55
2018-12-05T10:53:42.722Z,14.45
2018-12-05T10:54:45.230Z,24.98
2018-12-05T10:55:47.764Z,19.92
2018-12-05T10:56:50.274Z,21.50
2018-12-05T10:57:52.810Z,12.10
2018-12-05T10:58:55.349Z,17.62
2018-12-05T10:59:57.871Z,21.02
2018-12-05T11:01:06.173Z,24.77
2018-12-05T11:02:14.338Z,18.02
2018-12-05T11:03:18.838Z,19.67
2018-12-05T11:06:05.250Z,19.23
2018-12-05T11:07:11.537Z,23.35
2018-12-05T11:08:21.967Z,16.95
2018-12-05T11:09:30.256Z,19.15
2018-12-05T11:10:38.546Z,20.77
2018-12-05T11:11:46.839Z,15.53
2018-12-05T11:12:54.903Z,19.62
2018-12-05T11:14:03.113Z,16.15
2018-12-05T11:15:11.432Z,24.30
2018-12-05T11:18:00.842Z,16.62
2018-12-05T11:19:09.075Z,19.95
2018-12-05T11:20:17.292Z,20.35
2018-12-05T11:23:07.264Z,14.43
2018-12-05T11:24:11.770Z,15.90
2018-12-05T11:25:14.562Z,21.73
2018-12-05T11:26:19.028Z,17.73
2018-12-05T11:27:21.537Z,14.93
2018-12-05T11:28:24.079Z,19.12
2018-12-05T11:29:26.598Z,14.33
2018-12-05T11:30:29.114Z,18.90
2018-12-05T11:31:31.636Z,16.65
2018-12-05T11:32:34.146Z,16.50
2018-12-05T11:33:36.706Z,18.27
2018-12-05T11:34:39.261Z,24.77
2018-12-05T11:35:41.769Z,20.35
2018-12-05T11:36:44.279Z,19.85
2018-12-05T11:37:46.808Z,17.32
2018-12-05T11:38:49.329Z,18.02
2018-12-05T11:39:52.034Z,19.73
2018-12-05T11:40:54.535Z,14.95
2018-12-05T11:41:57.038Z,18.02
2018-12-05T11:42:59.545Z,17.23
2018-12-05T11:44:02.066Z,18.77
2018-12-05T11:45:04.690Z,18.12
2018-12-05T11:46:07.277Z,16.20
2018-12-05T11:47:09.781Z,23.85
2018-12-05T11:48:12.281Z,14.93
2018-12-05T11:49:14.846Z,16.57
2018-12-05T11:50:17.349Z,13.68
2018-12-05T11:51:19.881Z,15.72
2018-12-05T11:52:22.387Z,22.70
2018-12-05T11:53:24.894Z,17.80
2018-12-05T11:54:27.409Z,18.25
2018-12-05T11:55:29.999Z,15.80
2018-12-05T11:56:32.572Z,17.23
2018-12-05T11:57:35.122Z,23.02
2018-12-05T11:58:37.753Z,25.12
2018-12-05T11:59:40.253Z,21.60
2018-12-05T12:00:42.756Z,15.83
2018-12-05T12:01:45.318Z,20.90
2018-12-05T12:02:47.831Z,19.20
2018-12-05T12:03:50.418Z,24.90
2018-12-05T12:04:52.921Z,15.60
2018-12-05T12:05:55.420Z,20.25
2018-12-05T12:06:57.981Z,20.60
2018-12-05T12:08:00.530Z,14.50
2018-12-05T12:09:04.291Z,19.02
2018-12-05T12:10:07.193Z,22.37
2018-12-05T12:11:09.763Z,14.05
2018-12-05T12:13:55.095Z,17.95
2018-12-05T12:14:57.601Z,13.00
2018-12-05T12:16:00.221Z,21.85
2018-12-05T12:17:02.828Z,16.45
2018-12-05T12:18:05.474Z,22.52
2018-12-05T12:19:08.026Z,19.27
2018-12-05T12:20:10.529Z,30.68
2018-12-05T12:21:13.127Z,27.87
2018-12-05T12:22:15.645Z,15.23
2018-12-05T12:23:18.146Z,16.57
2018-12-05T12:24:20.711Z,17.37
2018-12-05T12:25:23.226Z,19.12
2018-12-05T12:26:32.926Z,24.98
2018-12-05T12:27:30.308Z,21.25
2018-12-05T12:28:32.814Z,18.50
2018-12-05T12:29:35.336Z,17.65
2018-12-05T12:30:37.847Z,25.60
2018-12-05T12:31:40.440Z,17.40
2018-12-05T12:32:42.953Z,16.42
2018-12-05T12:33:45.463Z,19.20
2018-12-05T12:34:47.978Z,16.52
2018-12-05T12:35:50.478Z,16.82
2018-12-05T12:36:53.012Z,24.12
2018-12-05T12:37:55.530Z,16.65
2018-12-05T12:38:58.038Z,21.97
2018-12-05T12:40:00.599Z,19.30
2018-12-05T12:41:03.168Z,18.02
2018-12-05T12:43:14.693Z,16.45
2018-12-05T12:44:17.264Z,13.32
2018-12-05T12:45:20.169Z,23.95
2018-12-05T12:46:22.870Z,20.90
2018-12-05T12:47:25.372Z,15.75
2018-12-05T12:48:27.967Z,19.27
2018-12-05T12:49:30.482Z,17.40
2018-12-05T12:50:32.994Z,13.40
2018-12-05T12:51:35.499Z,20.40
2018-12-05T12:52:38.013Z,15.35
2018-12-05T12:53:40.541Z,18.62
2018-12-05T12:54:43.090Z,15.83
2018-12-05T12:55:45.612Z,20.88
2018-12-05T12:56:48.113Z,24.55
2018-12-05T12:57:50.622Z,21.23
2018-12-05T12:58:53.158Z,17.02
2018-12-05T12:59:55.670Z,16.07
2018-12-05T13:00:58.191Z,16.42
2018-12-05T13:02:00.701Z,16.57
2018-12-05T13:04:12.149Z,22.98
2018-12-05T13:05:14.653Z,19.95
2018-12-05T13:06:17.182Z,15.35
2018-12-05T13:07:19.815Z,18.45
2018-12-05T13:08:22.333Z,19.12
2018-12-05T13:09:24.874Z,12.05
2018-12-05T13:10:27.381Z,19.25
2018-12-05T13:11:29.938Z,15.63
2018-12-05T13:12:34.354Z,13.65
2018-12-05T13:13:36.869Z,17.30
2018-12-05T13:14:39.384Z,10.48
2018-12-05T13:15:41.881Z,8.43
2018-12-05T13:16:44.422Z,10.85
2018-12-05T13:17:46.926Z,6.53
2018-12-05T13:18:49.490Z,13.40
2018-12-05T13:19:52.000Z,8.48
2018-12-05T13:20:54.522Z,7.80
2018-12-05T13:21:57.025Z,7.83
2018-12-05T13:22:59.542Z,7.95
2018-12-05T13:24:02.083Z,19.10
2018-12-05T13:25:04.850Z,7.25
2018-12-05T13:26:07.363Z,8.13
2018-12-05T13:27:09.882Z,9.63
2018-12-05T13:28:12.395Z,5.30
2018-12-05T13:29:14.897Z,8.75
2018-12-05T13:30:17.494Z,4.55
2018-12-05T13:31:20.005Z,5.45
2018-12-05T13:32:22.574Z,6.58
2018-12-05T13:33:25.077Z,5.37
2018-12-05T13:34:27.589Z,8.65
2018-12-05T13:35:30.131Z,10.18
2018-12-05T13:36:32.649Z,8.70
2018-12-05T13:37:35.158Z,6.45